Deal Park, New Jersey
Current Conditions -  °F | °C
As of 11:55 PM on Saturday 22 Nov 2014 (Local Time) from KBLM Reporting Station
Overcast Overcast  
Wind Chill: 37°   Ceiling: 12000
Heat Index: 43°   Visibility: 10mi
Dew Point: 19°   Wind: 12mph
Humidity: 39%   Direction: 240°WSW
Pressure: 30.23"   Gusts: 22mph
Location:  40.2504°N, 74.0014°W
Report Text: KBLM 230455Z AUTO 24010G19KT 10SM OVC120 06/M07 A3023 RMK AO1
Loading
Personal Weather Stations






























Interactive Weather Map New forecast layout! Learn more

10-Day Weather Forecast

Advertisements
Track Severe Weather on mobile